Time;durP1;ratioP1;P1;durP2;ratioP2;P2;SDS_P1;SDS_P2;PMS_P1;PMS_P2;Temp;Humidity;BMP_temperature;BMP_pressure;BME280_temperature;BME280_humidity;BME280_pressure;Samples;Min_cycle;Max_cycle;Signal;HPM_P1;HPM_P2
2022/05/01 00:00:45;;;;;;;;;12.75;11.75;;;;;13.99;43.46;101852.34;5004179;28;45460;-86
2022/05/01 00:03:30;;;;;;;;;11.00;11.00;;;;;13.89;43.36;101835.03;5005104;28;46493;-85
2022/05/01 00:05:56;;;;;;;;;11.25;9.25;;;;;13.96;43.62;101849.81;5002071;28;45449;-85
2022/05/01 00:08:21;;;;;;;;;12.00;12.00;;;;;13.91;43.63;101848.34;5005415;28;45364;-85
2022/05/01 00:10:47;;;;;;;;;7.75;7.75;;;;;13.48;43.69;101789.03;5002777;28;45384;-86
2022/05/01 00:13:12;;;;;;;;;11.50;10.00;;;;;13.61;43.96;101822.22;5001842;28;45419;-86
2022/05/01 00:15:37;;;;;;;;;10.00;10.00;;;;;13.77;44.20;101849.06;4997493;28;53174;-85
2022/05/01 00:18:03;;;;;;;;;11.75;10.00;;;;;13.58;44.13;101820.56;4999640;28;45440;-86
2022/05/01 00:20:28;;;;;;;;;8.50;8.50;;;;;13.56;44.26;101822.44;5002236;28;45392;-85
2022/05/01 00:22:54;;;;;;;;;10.50;8.25;;;;;13.49;44.50;101817.50;5001507;28;47229;-86
2022/05/01 00:25:19;;;;;;;;;15.50;11.25;;;;;13.58;44.30;101823.22;4997811;28;45588;-87
2022/05/01 00:27:44;;;;;;;;;13.75;11.25;;;;;13.59;44.51;101841.03;5000185;28;45556;-86
2022/05/01 00:30:10;;;;;;;;;9.75;9.75;;;;;13.53;44.92;101835.97;4998070;28;45306;-85
2022/05/01 00:36:25;;;;;;;;;11.25;11.25;;;;;13.55;44.49;101830.56;5004864;28;46183;-85
2022/05/01 00:38:05;;;;;;;;;12.75;10.50;;;;;13.35;44.81;101816.41;5005804;28;45471;-86
2022/05/01 00:40:30;;;;;;;;;8.25;8.25;;;;;13.51;44.93;101850.38;5005885;28;45397;-86
2022/05/01 00:43:00;;;;;;;;;12.00;12.00;;;;;13.45;45.11;101845.34;5000314;28;45968;-86
2022/05/01 00:45:26;;;;;;;;;12.00;10.25;;;;;13.42;44.96;101854.38;5000281;28;46351;-85
2022/05/01 00:47:51;;;;;;;;;13.50;12.00;;;;;13.25;45.42;101814.22;5000213;28;45772;-84
2022/05/01 00:50:17;;;;;;;;;15.50;11.75;;;;;13.37;45.27;101835.03;5001828;28;45667;-86
2022/05/01 00:52:42;;;;;;;;;10.75;10.00;;;;;13.14;45.34;101806.75;4998681;28;46664;-87
2022/05/01 00:55:08;;;;;;;;;12.00;11.00;;;;;13.33;45.68;101839.66;4997887;28;45544;-86
2022/05/01 00:57:34;;;;;;;;;11.50;8.50;;;;;13.14;45.55;101812.94;5012733;28;45469;-87
2022/05/01 00:59:59;;;;;;;;;14.50;12.25;;;;;13.24;45.57;101842.78;5004590;28;45630;-87
2022/05/01 01:02:24;;;;;;;;;11.50;11.00;;;;;13.22;45.89;101839.28;5001427;28;45727;-86
2022/05/01 01:04:50;;;;;;;;;12.25;11.75;;;;;13.10;45.82;101821.19;4996232;28;48834;-85
2022/05/01 01:07:15;;;;;;;;;16.75;12.00;;;;;13.09;45.93;101828.34;5000104;28;45514;-85
2022/05/01 01:09:40;;;;;;;;;10.50;10.25;;;;;13.10;45.93;101835.41;4991270;28;47537;-85
2022/05/01 01:15:09;;;;;;;;;12.75;10.50;;;;;12.99;46.09;101819.91;4993183;28;45499;-86
2022/05/01 01:17:42;;;;;;;;;13.25;11.00;;;;;13.09;46.08;101825.69;4994594;28;45425;-85
2022/05/01 01:20:11;;;;;;;;;9.25;9.25;;;;;12.97;46.34;101810.25;4995149;28;45519;-86
2022/05/01 01:22:38;;;;;;;;;8.75;8.75;;;;;13.04;46.31;101824.19;4994314;28;46622;-85
2022/05/01 01:25:05;;;;;;;;;11.50;11.50;;;;;12.98;46.42;101828.00;4991521;28;45864;-86
2022/05/01 01:27:31;;;;;;;;;14.00;11.25;;;;;12.86;46.53;101801.88;5012027;28;45691;-85
2022/05/01 01:32:40;;;;;;;;;13.75;12.25;;;;;12.88;46.68;101813.38;5000461;28;46145;-86
2022/05/01 01:35:09;;;;;;;;;11.50;11.50;;;;;12.86;46.70;101812.56;5002531;28;45911;-85
2022/05/01 01:37:35;;;;;;;;;11.75;11.75;;;;;12.88;47.04;101824.91;5000863;28;44975;-86
2022/05/01 01:40:01;;;;;;;;;10.00;10.00;;;;;12.88;46.92;101827.59;5012790;28;45443;-85
2022/05/01 01:42:30;;;;;;;;;17.75;14.00;;;;;12.86;47.06;101821.44;4992056;28;45542;-87
2022/05/01 01:44:58;;;;;;;;;12.75;12.75;;;;;12.84;47.03;101826.00;4992042;28;45546;-86
2022/05/01 01:47:23;;;;;;;;;13.25;11.50;;;;;12.81;47.28;101827.97;4992668;28;45401;-86
2022/05/01 01:49:48;;;;;;;;;17.75;15.00;;;;;12.69;46.96;101808.03;4993403;28;45467;-86
2022/05/01 01:52:14;;;;;;;;;14.75;14.50;;;;;12.71;47.30;101823.06;4991224;28;53309;-86
2022/05/01 01:54:39;;;;;;;;;13.25;12.75;;;;;12.74;47.39;101827.38;4990649;28;54113;-86
2022/05/01 01:57:05;;;;;;;;;17.75;17.75;;;;;12.70;47.64;101828.47;4993068;28;45510;-85
2022/05/01 01:59:30;;;;;;;;;12.75;12.75;;;;;12.44;47.77;101781.63;4990827;28;45396;-87
2022/05/01 02:01:56;;;;;;;;;17.25;14.00;;;;;12.64;47.88;101818.94;4991959;28;46042;-87
2022/05/01 02:04:21;;;;;;;;;13.75;13.75;;;;;12.43;48.16;101779.88;4992549;28;45537;-87
2022/05/01 02:06:47;;;;;;;;;15.00;12.75;;;;;12.62;48.05;101819.94;4993020;28;45405;-87
2022/05/01 02:09:13;;;;;;;;;14.75;13.00;;;;;12.55;48.00;101814.91;4992750;28;59516;-87
2022/05/01 02:11:38;;;;;;;;;16.25;14.75;;;;;12.54;48.43;101823.00;4994370;28;45954;-87
2022/05/01 02:14:07;;;;;;;;;14.50;13.75;;;;;12.40;48.28;101794.25;4991969;28;45536;-87
2022/05/01 02:16:33;;;;;;;;;17.50;15.25;;;;;12.35;48.39;101788.25;4993236;28;45481;-87
2022/05/01 02:18:59;;;;;;;;;21.50;17.00;;;;;12.49;48.59;101814.34;4993236;28;45495;-87
2022/05/01 02:21:36;;;;;;;;;17.25;15.50;;;;;12.26;48.62;101772.66;4992072;28;46749;-85
2022/05/01 02:24:07;;;;;;;;;14.50;13.75;;;;;12.38;48.55;101795.25;4989946;28;45536;-85
2022/05/01 02:26:32;;;;;;;;;21.25;19.50;;;;;12.25;48.77;101777.16;4991890;28;45625;-85
2022/05/01 02:28:59;;;;;;;;;19.00;18.00;;;;;12.44;48.86;101797.66;4993028;28;45310;-85
2022/05/01 02:31:26;;;;;;;;;18.00;16.50;;;;;12.42;48.91;101804.88;4990958;28;46331;-85
2022/05/01 02:33:52;;;;;;;;;17.00;14.25;;;;;12.26;48.69;101778.00;4997083;28;45906;-85
2022/05/01 02:36:17;;;;;;;;;17.00;14.00;;;;;12.26;48.99;101770.84;4993473;28;45392;-87
2022/05/01 02:38:44;;;;;;;;;17.00;15.25;;;;;12.21;48.96;101772.88;4994445;28;45436;-87
2022/05/01 02:41:10;;;;;;;;;18.50;17.75;;;;;12.29;49.06;101781.41;4992557;28;45528;-87
2022/05/01 02:43:35;;;;;;;;;15.50;14.50;;;;;12.12;49.21;101758.19;4989406;28;45468;-87
2022/05/01 02:46:00;;;;;;;;;17.50;16.75;;;;;12.31;49.43;101792.91;4993820;28;45463;-86
2022/05/01 02:48:26;;;;;;;;;17.00;16.75;;;;;12.31;49.28;101794.69;4991394;28;45597;-88
2022/05/01 02:50:51;;;;;;;;;15.75;15.00;;;;;12.19;49.21;101774.75;4988669;28;45394;-86
2022/05/01 02:53:17;;;;;;;;;18.25;16.50;;;;;12.16;49.33;101769.56;4991629;28;45403;-86
2022/05/01 02:55:42;;;;;;;;;14.25;12.25;;;;;12.13;49.21;101765.22;4999257;28;45729;-87
2022/05/01 02:58:07;;;;;;;;;18.50;14.25;;;;;12.07;49.33;101756.63;4992836;28;45439;-87
2022/05/01 03:00:33;;;;;;;;;20.50;18.75;;;;;12.20;49.62;101780.97;4990967;28;45661;-87
2022/05/01 03:02:59;;;;;;;;;18.25;16.50;;;;;12.17;49.82;101782.00;4990243;28;45520;-87
2022/05/01 03:05:24;;;;;;;;;19.00;16.50;;;;;11.98;49.67;101749.94;4989843;28;45650;-87
2022/05/01 03:07:50;;;;;;;;;20.00;18.00;;;;;12.06;49.90;101762.91;4991317;28;45524;-88
2022/05/01 03:10:15;;;;;;;;;17.25;16.25;;;;;12.00;49.75;101750.75;4993217;28;45988;-88
2022/05/01 03:12:41;;;;;;;;;18.50;16.50;;;;;11.94;49.84;101754.53;4992566;28;45540;-88
2022/05/01 03:15:08;;;;;;;;;20.00;16.00;;;;;12.07;49.87;101773.50;4990594;28;45377;-88
2022/05/01 03:23:03;;;;;;;;;18.00;16.25;;;;;11.78;50.10;101747.25;4992141;28;45439;-88
2022/05/01 03:25:28;;;;;;;;;17.50;16.00;;;;;11.67;50.21;101739.75;5006861;28;45361;-88
2022/05/01 03:27:54;;;;;;;;;19.25;15.50;;;;;11.93;50.34;101779.50;4991340;28;45393;-88
2022/05/01 03:30:21;;;;;;;;;18.25;15.75;;;;;11.81;50.33;101750.66;4988626;28;46166;-89
2022/05/01 03:32:46;;;;;;;;;16.00;14.00;;;;;11.89;50.44;101763.69;4989992;28;46181;-88
2022/05/01 03:35:15;;;;;;;;;15.25;15.00;;;;;11.73;50.27;101732.31;4993187;28;45377;-88
2022/05/01 03:37:42;;;;;;;;;18.00;17.25;;;;;11.76;50.57;101744.69;4990301;28;45496;-88
2022/05/01 03:40:08;;;;;;;;;15.75;15.75;;;;;11.72;50.48;101740.41;4991612;28;47577;-88
2022/05/01 03:42:34;;;;;;;;;16.25;16.25;;;;;11.59;50.72;101726.72;4989099;28;45440;-88
2022/05/01 03:44:59;;;;;;;;;16.00;14.00;;;;;11.79;50.85;101770.34;4989506;28;45563;-88
2022/05/01 03:47:24;;;;;;;;;18.25;17.00;;;;;11.76;50.87;101760.69;4988860;28;56198;-88
2022/05/01 03:49:50;;;;;;;;;17.25;14.50;;;;;11.61;50.90;101737.34;4991795;28;56682;-89
2022/05/01 03:52:15;;;;;;;;;17.00;15.75;;;;;11.51;51.06;101719.06;4991670;28;47555;-89
2022/05/01 03:54:40;;;;;;;;;19.00;15.50;;;;;11.71;50.99;101750.22;4993423;28;45526;-88
2022/05/01 03:57:06;;;;;;;;;17.25;16.00;;;;;11.72;51.13;101748.41;4989289;28;47243;-88
2022/05/01 03:59:31;;;;;;;;;17.00;14.50;;;;;11.47;50.93;101709.50;4989664;28;54256;-89
2022/05/01 04:01:56;;;;;;;;;16.75;15.50;;;;;11.69;50.72;101746.75;4987890;28;45515;-88
2022/05/01 04:04:21;;;;;;;;;16.50;16.50;;;;;11.57;50.88;101717.06;4990360;28;45440;-89
2022/05/01 04:06:47;;;;;;;;;16.25;15.00;;;;;11.71;50.87;101747.53;4991242;28;45386;-88
2022/05/01 04:09:12;;;;;;;;;17.75;15.25;;;;;11.66;50.95;101751.34;4990618;28;45459;-87
2022/05/01 04:11:38;;;;;;;;;19.50;16.75;;;;;11.47;51.09;101725.50;4991872;28;45508;-88
2022/05/01 04:14:03;;;;;;;;;15.00;15.00;;;;;11.59;50.93;101750.72;4991280;28;45340;-88
2022/05/01 04:16:29;;;;;;;;;16.75;16.50;;;;;11.56;51.28;101747.34;4996471;28;45389;-88
2022/05/01 04:18:54;;;;;;;;;18.00;17.50;;;;;11.14;51.39;101693.19;4994920;28;47791;-88
2022/05/01 04:21:19;;;;;;;;;15.50;14.75;;;;;11.45;51.07;101740.69;4994652;28;45456;-88
2022/05/01 04:23:45;;;;;;;;;15.50;14.25;;;;;11.49;51.22;101750.28;4994326;28;45394;-88
2022/05/01 04:26:10;;;;;;;;;22.75;16.25;;;;;11.50;51.46;101753.81;4994104;28;45560;-88
2022/05/01 04:28:35;;;;;;;;;16.50;15.50;;;;;11.46;51.57;101761.06;4993230;28;45479;-88
2022/05/01 04:31:01;;;;;;;;;17.00;14.50;;;;;11.17;51.58;101717.03;4992941;28;45415;-88
2022/05/01 04:33:27;;;;;;;;;19.25;14.50;;;;;11.41;51.49;101755.09;4992759;28;45718;-88
2022/05/01 04:35:53;;;;;;;;;18.50;17.25;;;;;11.42;51.90;101754.13;4996325;28;45357;-88
2022/05/01 04:38:24;;;;;;;;;14.25;14.25;;;;;11.39;51.84;101745.41;4992751;28;47212;-88
2022/05/01 04:40:55;;;;;;;;;19.00;18.25;;;;;11.39;51.82;101758.75;4992088;28;46029;-89
2022/05/01 04:43:25;;;;;;;;;15.00;14.75;;;;;11.36;52.07;101748.22;4989853;28;45721;-88
2022/05/01 04:45:52;;;;;;;;;14.00;13.25;;;;;11.35;51.95;101750.00;4995508;28;45399;-88
2022/05/01 04:48:19;;;;;;;;;15.25;14.00;;;;;11.12;51.80;101716.34;4988577;28;48430;-88
2022/05/01 04:50:45;;;;;;;;;19.00;17.75;;;;;11.13;52.09;101723.41;4989822;28;45535;-88
2022/05/01 04:53:12;;;;;;;;;18.75;18.00;;;;;11.33;52.09;101757.22;4992949;28;45460;-88
2022/05/01 04:55:39;;;;;;;;;20.00;18.25;;;;;11.34;52.30;101752.75;4993056;28;45973;-88
2022/05/01 04:58:05;;;;;;;;;17.00;15.00;;;;;11.22;52.04;101733.69;4992656;28;45448;-88
2022/05/01 05:00:30;;;;;;;;;17.50;15.25;;;;;11.30;52.23;101749.34;4993883;28;45583;-88
2022/05/01 05:02:56;;;;;;;;;21.00;20.25;;;;;11.35;52.30;101759.81;4993025;28;45410;-87
2022/05/01 05:05:24;;;;;;;;;24.75;21.00;;;;;11.21;52.14;101739.09;4994170;28;47426;-87
2022/05/01 05:07:50;;;;;;;;;24.50;21.00;;;;;11.32;52.19;101760.81;4992863;28;48631;-88
2022/05/01 05:10:16;;;;;;;;;20.50;19.25;;;;;11.28;52.51;101761.84;4991724;28;55807;-88
2022/05/01 05:12:43;;;;;;;;;17.75;17.00;;;;;11.11;52.43;101737.72;4994712;28;45301;-88
2022/05/01 05:15:11;;;;;;;;;17.50;14.25;;;;;10.92;52.53;101697.66;4995654;28;45473;-88
2022/05/01 05:17:38;;;;;;;;;22.25;16.50;;;;;11.17;52.51;101757.00;4994172;28;45539;-87
2022/05/01 05:20:05;;;;;;;;;21.00;17.75;;;;;11.04;52.79;101746.00;4996633;28;45348;-88
2022/05/01 05:22:30;;;;;;;;;21.75;18.50;;;;;11.20;52.77;101772.00;4994496;28;46068;-88
2022/05/01 05:24:55;;;;;;;;;20.50;19.25;;;;;11.19;52.97;101773.78;4994616;28;45564;-88
2022/05/01 05:27:25;;;;;;;;;26.75;20.75;;;;;11.21;52.96;101776.41;4990124;28;47150;-88
2022/05/01 05:29:51;;;;;;;;;18.75;18.50;;;;;11.03;52.92;101746.06;4995946;28;45483;-88
2022/05/01 05:32:16;;;;;;;;;20.00;18.00;;;;;11.26;52.92;101777.06;4995191;28;45504;-88
2022/05/01 05:34:42;;;;;;;;;18.50;17.00;;;;;11.08;52.86;101760.91;4996299;28;45511;-88
2022/05/01 05:37:07;;;;;;;;;24.75;20.50;;;;;10.91;52.98;101723.44;4995615;28;45717;-87
2022/05/01 05:39:32;;;;;;;;;18.50;18.50;;;;;11.17;52.91;101767.66;4990254;28;45377;-88
2022/05/01 05:41:58;;;;;;;;;24.50;19.50;;;;;11.28;52.91;101786.75;4995498;28;45567;-88
2022/05/01 05:44:24;;;;;;;;;19.00;18.00;;;;;11.24;52.93;101785.13;4996070;28;45544;-87
2022/05/01 05:46:50;;;;;;;;;24.75;22.75;;;;;11.25;52.86;101778.84;4996122;28;45472;-88
2022/05/01 05:49:16;;;;;;;;;23.25;21.50;;;;;11.12;52.79;101750.13;4994435;28;45557;-88
2022/05/01 05:51:41;;;;;;;;;22.25;21.25;;;;;11.23;52.69;101762.09;4995103;28;45285;-88
2022/05/01 05:54:06;;;;;;;;;24.00;20.50;;;;;11.28;52.74;101775.19;4996060;28;45527;-87
2022/05/01 05:56:32;;;;;;;;;21.50;17.25;;;;;11.28;53.17;101773.41;4994123;28;47116;-87
2022/05/01 05:58:57;;;;;;;;;24.25;22.25;;;;;11.21;53.18;101768.41;4995115;28;45488;-87
2022/05/01 06:01:23;;;;;;;;;23.75;20.00;;;;;11.35;52.97;101782.00;4995276;28;45467;-88
2022/05/01 06:03:49;;;;;;;;;22.50;22.50;;;;;11.15;53.25;101744.69;5011071;28;45504;-88
2022/05/01 06:06:15;;;;;;;;;27.25;23.50;;;;;11.43;53.21;101776.34;4994250;28;47408;-88
2022/05/01 06:08:41;;;;;;;;;23.50;23.00;;;;;11.46;52.93;101777.06;4994505;28;45876;-88
2022/05/01 06:11:06;;;;;;;;;25.00;22.75;;;;;11.44;53.04;101773.59;4996158;28;45684;-88
2022/05/01 06:13:32;;;;;;;;;24.75;23.25;;;;;11.39;53.26;101761.41;4995409;28;45461;-88
2022/05/01 06:15:58;;;;;;;;;25.25;22.00;;;;;11.43;53.65;101768.34;4994857;28;45399;-87
2022/05/01 06:18:24;;;;;;;;;28.25;26.00;;;;;11.34;53.18;101750.94;4994035;28;45501;-88
2022/05/01 06:20:50;;;;;;;;;23.50;19.75;;;;;11.54;53.26;101775.88;4995646;28;45317;-88
2022/05/01 06:23:16;;;;;;;;;24.25;19.25;;;;;11.40;53.07;101753.38;4996152;28;45478;-89
2022/05/01 06:25:46;;;;;;;;;26.00;22.00;;;;;11.62;53.15;101782.63;4993717;28;47448;-88
2022/05/01 06:28:12;;;;;;;;;25.75;22.25;;;;;11.50;53.06;101768.03;4993932;28;45673;-88
2022/05/01 06:30:41;;;;;;;;;30.50;25.25;;;;;11.67;53.46;101791.28;4995155;28;45588;-87
2022/05/01 06:33:12;;;;;;;;;26.00;23.25;;;;;11.58;53.27;101773.00;4993352;28;45641;-87
2022/05/01 06:35:38;;;;;;;;;24.50;24.50;;;;;11.63;53.29;101770.16;4993833;28;48268;-88
2022/05/01 06:38:03;;;;;;;;;26.00;25.00;;;;;11.76;53.23;101783.81;4993965;28;45390;-88
2022/05/01 06:40:29;;;;;;;;;25.50;25.25;;;;;11.55;53.02;101757.16;4995067;28;45517;-88
2022/05/01 06:42:54;;;;;;;;;25.75;25.75;;;;;11.85;53.30;101802.06;4994127;28;45413;-88
2022/05/01 06:45:20;;;;;;;;;22.50;21.50;;;;;11.83;53.23;101788.78;4994719;28;46546;-88
2022/05/01 06:47:45;;;;;;;;;29.75;28.50;;;;;11.93;53.10;101803.50;4995289;28;49831;-88
2022/05/01 06:50:11;;;;;;;;;23.75;22.75;;;;;11.83;53.23;101780.78;4995777;28;45529;-88
2022/05/01 06:52:37;;;;;;;;;30.50;27.75;;;;;12.06;52.69;101802.94;4995436;28;45417;-88
2022/05/01 06:55:04;;;;;;;;;28.75;26.00;;;;;11.92;52.55;101774.22;4993222;28;47337;-89
2022/05/01 06:57:29;;;;;;;;;28.00;25.00;;;;;12.14;52.57;101812.31;4994283;28;45324;-88
2022/05/01 06:59:55;;;;;;;;;27.25;26.75;;;;;12.10;52.84;101808.09;4994760;28;45674;-88
2022/05/01 07:02:20;;;;;;;;;27.75;26.75;;;;;12.17;52.78;101808.69;4994888;28;45461;-87
2022/05/01 07:04:47;;;;;;;;;34.25;32.25;;;;;12.08;52.75;101787.75;4993803;28;48350;-87
2022/05/01 07:07:12;;;;;;;;;31.00;27.50;;;;;12.04;52.86;101772.78;4994760;28;45531;-87
2022/05/01 07:09:38;;;;;;;;;30.25;29.00;;;;;12.17;52.62;101792.66;4994482;28;45325;-87
2022/05/01 07:12:04;;;;;;;;;37.00;32.25;;;;;12.30;52.78;101804.50;5010025;28;45532;-88
2022/05/01 07:14:30;;;;;;;;;27.00;25.50;;;;;12.33;52.96;101807.00;4994616;28;45501;-88
2022/05/01 07:16:55;;;;;;;;;29.00;26.50;;;;;12.33;53.04;101785.66;4994617;28;45392;-88
2022/05/01 07:19:20;;;;;;;;;30.25;29.50;;;;;12.30;52.65;101758.25;4993830;28;45475;-88
2022/05/01 07:21:46;;;;;;;;;24.75;24.25;;;;;12.53;52.51;101795.41;4994240;28;45322;-88
2022/05/01 07:24:11;;;;;;;;;27.00;26.25;;;;;12.43;52.26;101771.88;4993111;28;46994;-87
2022/05/01 07:26:36;;;;;;;;;37.00;29.25;;;;;12.64;51.89;101792.22;4993326;28;45876;-88
2022/05/01 07:29:03;;;;;;;;;28.00;27.00;;;;;12.66;52.38;101790.34;4994990;28;50247;-88
2022/05/01 07:31:29;;;;;;;;;29.75;24.75;;;;;12.31;52.45;101731.50;4994933;28;45364;-87
2022/05/01 07:33:54;;;;;;;;;29.50;28.00;;;;;12.60;52.38;101771.06;4994310;28;45555;-88
2022/05/01 07:36:20;;;;;;;;;36.25;31.00;;;;;12.63;52.03;101770.91;4993146;28;46084;-88
2022/05/01 07:38:46;;;;;;;;;29.00;25.25;;;;;12.76;52.41;101798.78;4994671;28;45333;-87
2022/05/01 07:41:12;;;;;;;;;31.75;29.00;;;;;12.84;51.91;101801.09;4995612;28;45343;-88
2022/05/01 07:43:41;;;;;;;;;29.50;25.75;;;;;12.91;52.09;101789.16;4994606;28;45328;-87
2022/05/01 07:46:06;;;;;;;;;26.50;25.50;;;;;12.94;51.95;101792.56;4993150;28;45441;-87
2022/05/01 07:48:31;;;;;;;;;28.25;24.75;;;;;12.99;51.89;101793.19;4996624;28;45369;-88
2022/05/01 07:50:57;;;;;;;;;35.00;30.75;;;;;13.05;51.66;101786.66;4996955;28;45470;-88
2022/05/01 07:53:22;;;;;;;;;31.25;28.25;;;;;12.79;51.41;101738.06;4997604;28;48263;-87
2022/05/01 07:55:47;;;;;;;;;25.00;23.75;;;;;13.06;51.29;101764.34;4996800;28;45445;-87
2022/05/01 07:58:13;;;;;;;;;30.75;27.50;;;;;13.19;51.08;101775.28;5013174;28;45570;-87
2022/05/01 08:00:38;;;;;;;;;28.75;25.75;;;;;13.22;51.44;101778.66;4997439;28;45239;-87
2022/05/01 08:05:47;;;;;;;;;25.75;24.75;;;;;13.43;50.87;101778.56;4982241;28;45586;-85
2022/05/01 08:08:13;;;;;;;;;28.00;25.50;;;;;13.47;50.28;101780.13;4998085;28;45450;-85
2022/05/01 08:10:38;;;;;;;;;25.25;23.75;;;;;13.54;49.93;101772.63;4996100;28;45714;-85
2022/05/01 08:13:03;;;;;;;;;23.00;21.75;;;;;13.57;49.50;101770.69;4997204;28;45507;-86
2022/05/01 08:15:29;;;;;;;;;28.50;25.50;;;;;13.53;48.95;101738.81;4997337;28;45457;-85
2022/05/01 08:21:04;;;;;;;;;25.50;24.00;;;;;13.67;49.11;101746.97;4997473;28;45409;-86
2022/05/01 08:23:23;;;;;;;;;27.50;27.00;;;;;13.71;48.56;101740.53;4995344;28;46418;-86
2022/05/01 08:25:49;;;;;;;;;26.75;23.00;;;;;13.71;48.90;101742.31;4998539;28;45325;-87
2022/05/01 08:28:14;;;;;;;;;23.00;22.25;;;;;13.85;48.77;101758.50;4996493;28;45451;-86
2022/05/01 08:30:40;;;;;;;;;25.00;24.25;;;;;13.89;48.44;101754.72;5012280;28;45417;-86
2022/05/01 08:33:06;;;;;;;;;23.00;22.00;;;;;13.95;48.00;101737.47;4997400;28;46397;-86
2022/05/01 08:35:31;;;;;;;;;27.75;24.25;;;;;14.05;47.86;101744.06;4996855;28;45558;-87
2022/05/01 08:37:57;;;;;;;;;23.25;22.00;;;;;13.99;47.65;101739.88;4997690;28;45688;-85
2022/05/01 08:40:22;;;;;;;;;24.50;24.00;;;;;14.10;48.06;101751.84;4997161;28;45582;-85
2022/05/01 08:42:50;;;;;;;;;25.50;25.50;;;;;13.82;48.20;101713.19;4995441;28;48028;-85
2022/05/01 08:45:21;;;;;;;;;29.75;26.25;;;;;14.01;48.09;101731.78;4997119;28;45613;-85
2022/05/01 08:47:55;;;;;;;;;24.50;22.50;;;;;14.26;48.04;101744.69;4981461;28;45314;-86
2022/05/01 08:50:22;;;;;;;;;22.00;21.00;;;;;14.36;46.98;101753.06;4993654;28;45436;-86
2022/05/01 08:52:48;;;;;;;;;25.25;21.75;;;;;14.39;47.57;101747.56;4997017;28;45433;-85
2022/05/01 08:55:16;;;;;;;;;23.50;21.75;;;;;14.43;46.87;101752.66;4996724;28;45508;-85
2022/05/01 08:57:41;;;;;;;;;20.50;20.50;;;;;14.36;46.63;101724.47;4996600;28;45458;-85
2022/05/01 09:00:08;;;;;;;;;24.25;19.50;;;;;14.44;46.68;101732.94;4996145;28;46361;-84
2022/05/01 09:02:33;;;;;;;;;29.50;25.75;;;;;14.49;46.55;101730.88;4995039;28;47228;-85
2022/05/01 09:04:59;;;;;;;;;20.25;20.00;;;;;14.61;46.33;101747.22;4995525;28;45456;-85
2022/05/01 09:07:24;;;;;;;;;23.50;22.00;;;;;14.68;46.77;101748.63;4996672;28;45573;-85
2022/05/01 09:09:51;;;;;;;;;24.00;21.50;;;;;14.80;45.93;101734.50;4996555;28;45285;-85
2022/05/01 09:15:01;;;;;;;;;21.00;20.50;;;;;14.94;45.23;101725.66;4982933;28;45467;-85
2022/05/01 09:17:26;;;;;;;;;20.00;20.00;;;;;15.02;45.07;101734.09;4996589;28;45391;-85
2022/05/01 09:20:04;;;;;;;;;22.50;20.25;;;;;14.98;44.57;101726.34;4991417;28;45290;-85
2022/05/01 09:22:47;;;;;;;;;26.25;23.00;;;;;15.14;44.78;101724.47;4992378;28;48266;-85
2022/05/01 09:25:18;;;;;;;;;24.00;23.50;;;;;15.20;44.81;101726.81;4991417;28;45587;-84
2022/05/01 09:27:43;;;;;;;;;28.50;26.50;;;;;15.21;43.91;101720.47;5005749;28;45530;-85
2022/05/01 09:30:12;;;;;;;;;20.00;20.00;;;;;15.45;43.46;101736.91;4993711;28;45208;-85
2022/05/01 09:32:39;;;;;;;;;25.25;24.25;;;;;15.23;43.64;101699.78;4995955;28;45514;-84
2022/05/01 09:35:07;;;;;;;;;20.50;19.25;;;;;15.43;43.85;101708.44;4990800;28;45537;-85
2022/05/01 09:37:32;;;;;;;;;22.00;21.00;;;;;15.51;42.32;101698.09;4991895;28;45584;-85
2022/05/01 09:39:58;;;;;;;;;24.75;22.50;;;;;15.58;43.19;101693.22;4985906;28;45572;-84
2022/05/01 09:42:25;;;;;;;;;27.00;24.50;;;;;15.75;42.60;101706.47;4992800;28;47304;-85
2022/05/01 09:45:12;;;;;;;;;21.00;21.00;;;;;15.94;42.44;101717.78;4995906;28;45581;-86
2022/05/01 09:47:45;;;;;;;;;20.75;20.75;;;;;15.88;41.99;101683.28;4995338;28;45483;-85
2022/05/01 09:50:13;;;;;;;;;20.00;19.25;;;;;15.99;41.85;101679.91;4995761;28;45576;-84
2022/05/01 09:52:59;;;;;;;;;22.50;22.50;;;;;16.21;40.37;101713.44;4987438;28;45524;-85
2022/05/01 09:55:26;;;;;;;;;21.00;20.00;;;;;16.08;40.74;101698.13;4991873;28;45507;-85
2022/05/01 09:58:09;;;;;;;;;24.50;24.50;;;;;16.08;40.68;101675.78;4992098;28;45981;-84
2022/05/01 10:00:42;;;;;;;;;23.00;21.25;;;;;16.32;40.98;101708.25;4992074;28;45444;-84
2022/05/01 10:03:28;;;;;;;;;24.00;22.75;;;;;16.47;40.89;101699.19;4982506;28;47261;-85
2022/05/01 10:05:54;;;;;;;;;20.50;19.50;;;;;16.42;40.99;101677.13;4983568;28;45559;-84
2022/05/01 10:08:20;;;;;;;;;23.50;21.50;;;;;16.82;40.72;101696.88;4985648;28;45506;-85
2022/05/01 10:10:47;;;;;;;;;20.50;20.50;;;;;16.89;40.18;101691.09;4983955;28;45580;-84
2022/05/01 10:13:13;;;;;;;;;22.50;20.75;;;;;16.98;39.77;101691.34;4990655;28;45574;-84
2022/05/01 10:15:39;;;;;;;;;22.50;21.25;;;;;17.07;39.23;101689.84;4994700;28;45255;-84
2022/05/01 10:18:05;;;;;;;;;26.25;21.00;;;;;16.98;38.29;101656.38;4992989;28;45268;-84
2022/05/01 10:20:33;;;;;;;;;19.75;19.75;;;;;16.99;38.58;101659.91;4994719;28;45298;-85
2022/05/01 10:22:59;;;;;;;;;25.75;24.25;;;;;16.98;38.45;101652.78;4993082;28;45371;-85
2022/05/01 10:25:25;;;;;;;;;23.00;21.00;;;;;17.15;38.54;101654.31;5009513;28;45880;-84
2022/05/01 10:28:08;;;;;;;;;16.25;16.25;;;;;17.48;38.07;101669.09;4994652;28;45427;-85
2022/05/01 10:34:03;;;;;;;;;18.25;15.50;;;;;17.34;38.32;101648.53;4989511;28;45418;-86
2022/05/01 10:37:09;;;;;;;;;22.75;22.75;;;;;17.41;38.38;101658.78;4984851;28;45341;-84
2022/05/01 10:39:38;;;;;;;;;24.25;21.00;;;;;17.43;38.13;101640.66;4991583;28;45594;-85
2022/05/01 10:42:04;;;;;;;;;24.00;23.50;;;;;17.58;37.35;101654.00;4993251;28;45714;-85
2022/05/01 10:44:34;;;;;;;;;25.75;24.50;;;;;17.53;37.59;101646.25;5009840;28;47270;-85
2022/05/01 10:47:16;;;;;;;;;19.25;18.00;;;;;17.49;37.83;101622.38;4992399;28;45653;-84
2022/05/01 10:49:47;;;;;;;;;23.25;20.00;;;;;17.50;37.74;101627.63;4983463;28;45778;-85
2022/05/01 10:52:17;;;;;;;;;18.00;18.00;;;;;17.86;38.17;101655.63;4990112;28;45390;-87
2022/05/01 10:55:00;;;;;;;;;23.25;19.50;;;;;17.99;39.53;101626.84;4984107;28;45690;-84
2022/05/01 10:57:26;;;;;;;;;21.00;17.75;;;;;18.19;40.84;101625.34;4981901;28;45356;-85
2022/05/01 11:00:10;;;;;;;;;21.50;18.75;;;;;18.27;39.57;101633.72;4981870;28;45658;-83
2022/05/01 11:02:42;;;;;;;;;24.25;20.50;;;;;18.35;39.99;101630.47;4994565;28;45748;-84
2022/05/01 11:05:11;;;;;;;;;25.75;20.25;;;;;18.16;38.74;101605.84;4987469;28;46228;-85
2022/05/01 11:07:39;;;;;;;;;17.50;16.50;;;;;18.33;39.88;101599.19;4994511;28;45635;-84
2022/05/01 11:10:08;;;;;;;;;22.50;18.75;;;;;18.48;38.79;101633.09;4990101;28;45427;-84
2022/05/01 11:12:34;;;;;;;;;21.25;21.25;;;;;18.47;38.64;101626.84;4983013;28;45490;-83
2022/05/01 11:15:07;;;;;;;;;20.25;18.75;;;;;18.48;38.88;101623.16;4980099;28;45365;-83
2022/05/01 11:17:46;;;;;;;;;22.25;18.75;;;;;18.52;38.82;101624.66;4994206;28;45338;-84
2022/05/01 11:20:14;;;;;;;;;20.25;18.50;;;;;18.63;39.47;101623.84;4992614;28;45366;-84
2022/05/01 11:22:41;;;;;;;;;20.25;18.75;;;;;18.51;41.16;101592.41;4988407;28;45615;-84
2022/05/01 11:25:10;;;;;;;;;19.25;18.25;;;;;18.52;38.74;101588.75;4997924;28;45572;-84
2022/05/01 11:27:53;;;;;;;;;20.25;17.50;;;;;18.55;38.23;101612.78;4997858;28;45400;-84
2022/05/01 11:30:28;;;;;;;;;18.25;18.00;;;;;18.66;39.56;101596.63;4997777;28;45525;-84
2022/05/01 11:33:05;;;;;;;;;20.00;19.50;;;;;18.74;36.98;101598.75;4983168;28;45559;-82
2022/05/01 11:36:00;;;;;;;;;21.00;21.00;;;;;18.62;37.94;101588.91;4998006;28;45475;-84